sensor_id;sensor_type;location;lat;lon;timestamp;P1;durP1;ratioP1;P2;durP2;ratioP2
13592;SDS011;6867;50.998;4.250;2023-08-12T00:01:59;12.48;;;5.45;;
13592;SDS011;6867;50.998;4.250;2023-08-12T00:04:26;9.13;;;5.00;;
13592;SDS011;6867;50.998;4.250;2023-08-12T00:06:52;11.00;;;5.65;;
13592;SDS011;6867;50.998;4.250;2023-08-12T00:09:19;7.88;;;5.10;;
13592;SDS011;6867;50.998;4.250;2023-08-12T00:11:46;8.73;;;5.35;;
13592;SDS011;6867;50.998;4.250;2023-08-12T00:14:14;7.97;;;4.78;;
13592;SDS011;6867;50.998;4.250;2023-08-12T00:16:40;7.03;;;5.05;;
13592;SDS011;6867;50.998;4.250;2023-08-12T00:19:07;9.63;;;5.28;;
13592;SDS011;6867;50.998;4.250;2023-08-12T00:21:34;9.23;;;5.05;;
13592;SDS011;6867;50.998;4.250;2023-08-12T00:24:01;11.82;;;5.05;;
13592;SDS011;6867;50.998;4.250;2023-08-12T00:26:27;8.25;;;4.57;;
13592;SDS011;6867;50.998;4.250;2023-08-12T00:28:54;10.85;;;4.93;;
13592;SDS011;6867;50.998;4.250;2023-08-12T00:31:22;9.45;;;5.00;;
13592;SDS011;6867;50.998;4.250;2023-08-12T00:33:49;7.47;;;4.97;;
13592;SDS011;6867;50.998;4.250;2023-08-12T00:36:15;9.73;;;4.65;;
13592;SDS011;6867;50.998;4.250;2023-08-12T00:38:42;13.52;;;4.55;;
13592;SDS011;6867;50.998;4.250;2023-08-12T00:41:09;11.25;;;5.28;;
13592;SDS011;6867;50.998;4.250;2023-08-12T00:43:35;7.03;;;4.70;;
13592;SDS011;6867;50.998;4.250;2023-08-12T00:46:03;7.07;;;4.65;;
13592;SDS011;6867;50.998;4.250;2023-08-12T00:48:31;10.93;;;4.68;;
13592;SDS011;6867;50.998;4.250;2023-08-12T00:50:58;7.13;;;4.63;;
13592;SDS011;6867;50.998;4.250;2023-08-12T00:53:25;14.43;;;4.80;;
13592;SDS011;6867;50.998;4.250;2023-08-12T00:55:53;8.85;;;4.65;;
13592;SDS011;6867;50.998;4.250;2023-08-12T00:58:20;9.88;;;4.32;;
13592;SDS011;6867;50.998;4.250;2023-08-12T01:00:47;7.90;;;4.65;;
13592;SDS011;6867;50.998;4.250;2023-08-12T01:03:14;7.90;;;4.20;;
13592;SDS011;6867;50.998;4.250;2023-08-12T01:05:43;8.18;;;4.70;;
13592;SDS011;6867;50.998;4.250;2023-08-12T01:08:10;8.52;;;4.50;;
13592;SDS011;6867;50.998;4.250;2023-08-12T01:10:36;7.88;;;4.47;;
13592;SDS011;6867;50.998;4.250;2023-08-12T01:13:16;9.27;;;5.22;;
13592;SDS011;6867;50.998;4.250;2023-08-12T01:15:52;11.55;;;4.85;;
13592;SDS011;6867;50.998;4.250;2023-08-12T01:18:21;9.63;;;4.57;;
13592;SDS011;6867;50.998;4.250;2023-08-12T01:20:51;9.98;;;5.18;;
13592;SDS011;6867;50.998;4.250;2023-08-12T01:23:19;9.80;;;5.00;;
13592;SDS011;6867;50.998;4.250;2023-08-12T01:25:47;8.20;;;5.28;;
13592;SDS011;6867;50.998;4.250;2023-08-12T01:28:13;11.00;;;5.53;;
13592;SDS011;6867;50.998;4.250;2023-08-12T01:30:44;9.40;;;5.38;;
13592;SDS011;6867;50.998;4.250;2023-08-12T01:33:18;10.15;;;5.38;;
13592;SDS011;6867;50.998;4.250;2023-08-12T01:35:55;8.85;;;5.53;;
13592;SDS011;6867;50.998;4.250;2023-08-12T01:38:28;10.07;;;6.13;;
13592;SDS011;6867;50.998;4.250;2023-08-12T01:40:57;12.18;;;5.80;;
13592;SDS011;6867;50.998;4.250;2023-08-12T01:43:26;9.63;;;5.90;;
13592;SDS011;6867;50.998;4.250;2023-08-12T01:45:54;6.72;;;5.28;;
13592;SDS011;6867;50.998;4.250;2023-08-12T01:48:20;10.98;;;5.85;;
13592;SDS011;6867;50.998;4.250;2023-08-12T01:50:48;12.93;;;6.00;;
13592;SDS011;6867;50.998;4.250;2023-08-12T01:53:15;10.80;;;6.40;;
13592;SDS011;6867;50.998;4.250;2023-08-12T01:55:43;10.50;;;5.93;;
13592;SDS011;6867;50.998;4.250;2023-08-12T01:58:10;9.65;;;6.38;;
13592;SDS011;6867;50.998;4.250;2023-08-12T02:00:37;11.70;;;6.03;;
13592;SDS011;6867;50.998;4.250;2023-08-12T02:03:04;10.43;;;6.22;;
13592;SDS011;6867;50.998;4.250;2023-08-12T02:05:31;10.63;;;6.13;;
13592;SDS011;6867;50.998;4.250;2023-08-12T02:07:58;7.18;;;5.63;;
13592;SDS011;6867;50.998;4.250;2023-08-12T02:10:25;6.88;;;5.40;;
13592;SDS011;6867;50.998;4.250;2023-08-12T02:12:53;9.93;;;6.10;;
13592;SDS011;6867;50.998;4.250;2023-08-12T02:15:20;11.38;;;5.95;;
13592;SDS011;6867;50.998;4.250;2023-08-12T02:17:46;8.55;;;5.75;;
13592;SDS011;6867;50.998;4.250;2023-08-12T02:20:13;10.00;;;5.72;;
13592;SDS011;6867;50.998;4.250;2023-08-12T02:22:40;7.10;;;5.28;;
13592;SDS011;6867;50.998;4.250;2023-08-12T02:25:07;9.70;;;5.45;;
13592;SDS011;6867;50.998;4.250;2023-08-12T02:27:34;9.20;;;6.40;;
13592;SDS011;6867;50.998;4.250;2023-08-12T02:30:02;8.98;;;4.93;;
13592;SDS011;6867;50.998;4.250;2023-08-12T02:32:29;8.57;;;5.65;;
13592;SDS011;6867;50.998;4.250;2023-08-12T02:34:56;10.57;;;5.95;;
13592;SDS011;6867;50.998;4.250;2023-08-12T02:37:22;13.65;;;5.90;;
13592;SDS011;6867;50.998;4.250;2023-08-12T02:39:49;8.73;;;5.47;;
13592;SDS011;6867;50.998;4.250;2023-08-12T02:42:16;10.07;;;6.22;;
13592;SDS011;6867;50.998;4.250;2023-08-12T02:44:42;11.02;;;6.28;;
13592;SDS011;6867;50.998;4.250;2023-08-12T02:47:10;9.38;;;5.70;;
13592;SDS011;6867;50.998;4.250;2023-08-12T02:49:37;17.50;;;6.90;;
13592;SDS011;6867;50.998;4.250;2023-08-12T02:52:04;7.60;;;5.40;;
13592;SDS011;6867;50.998;4.250;2023-08-12T02:54:31;7.32;;;5.63;;
13592;SDS011;6867;50.998;4.250;2023-08-12T02:56:57;7.05;;;5.13;;
13592;SDS011;6867;50.998;4.250;2023-08-12T02:59:24;8.13;;;5.70;;
13592;SDS011;6867;50.998;4.250;2023-08-12T03:01:52;12.68;;;6.88;;
13592;SDS011;6867;50.998;4.250;2023-08-12T03:04:20;9.75;;;6.13;;
13592;SDS011;6867;50.998;4.250;2023-08-12T03:06:47;10.00;;;7.00;;
13592;SDS011;6867;50.998;4.250;2023-08-12T03:09:14;13.43;;;8.13;;
13592;SDS011;6867;50.998;4.250;2023-08-12T03:11:43;13.00;;;7.60;;
13592;SDS011;6867;50.998;4.250;2023-08-12T03:14:10;15.85;;;8.25;;
13592;SDS011;6867;50.998;4.250;2023-08-12T03:16:36;15.40;;;8.35;;
13592;SDS011;6867;50.998;4.250;2023-08-12T03:19:03;15.18;;;8.10;;
13592;SDS011;6867;50.998;4.250;2023-08-12T03:21:31;13.95;;;7.70;;
13592;SDS011;6867;50.998;4.250;2023-08-12T03:23:59;9.88;;;7.38;;
13592;SDS011;6867;50.998;4.250;2023-08-12T03:26:26;18.73;;;8.70;;
13592;SDS011;6867;50.998;4.250;2023-08-12T03:28:52;14.93;;;7.65;;
13592;SDS011;6867;50.998;4.250;2023-08-12T03:31:19;13.95;;;7.18;;
13592;SDS011;6867;50.998;4.250;2023-08-12T03:33:46;13.88;;;7.85;;
13592;SDS011;6867;50.998;4.250;2023-08-12T03:36:12;14.13;;;7.40;;
13592;SDS011;6867;50.998;4.250;2023-08-12T03:38:40;9.05;;;6.78;;
13592;SDS011;6867;50.998;4.250;2023-08-12T03:41:08;12.52;;;6.55;;
13592;SDS011;6867;50.998;4.250;2023-08-12T03:43:34;10.98;;;6.20;;
13592;SDS011;6867;50.998;4.250;2023-08-12T03:46:02;7.95;;;6.45;;
13592;SDS011;6867;50.998;4.250;2023-08-12T03:48:29;14.05;;;7.22;;
13592;SDS011;6867;50.998;4.250;2023-08-12T03:50:56;14.43;;;8.10;;
13592;SDS011;6867;50.998;4.250;2023-08-12T03:53:22;11.00;;;6.90;;
13592;SDS011;6867;50.998;4.250;2023-08-12T03:55:50;10.15;;;6.65;;
13592;SDS011;6867;50.998;4.250;2023-08-12T03:58:17;10.10;;;7.05;;
13592;SDS011;6867;50.998;4.250;2023-08-12T04:00:44;15.20;;;7.25;;
13592;SDS011;6867;50.998;4.250;2023-08-12T04:03:10;13.32;;;7.43;;
13592;SDS011;6867;50.998;4.250;2023-08-12T04:05:37;12.30;;;7.60;;
13592;SDS011;6867;50.998;4.250;2023-08-12T04:08:04;10.30;;;6.72;;
13592;SDS011;6867;50.998;4.250;2023-08-12T04:10:31;9.10;;;6.57;;
13592;SDS011;6867;50.998;4.250;2023-08-12T04:12:59;12.75;;;7.22;;
13592;SDS011;6867;50.998;4.250;2023-08-12T04:15:25;15.93;;;7.85;;
13592;SDS011;6867;50.998;4.250;2023-08-12T04:17:52;10.90;;;6.93;;
13592;SDS011;6867;50.998;4.250;2023-08-12T04:20:18;9.75;;;6.60;;
13592;SDS011;6867;50.998;4.250;2023-08-12T04:22:47;11.52;;;6.80;;
13592;SDS011;6867;50.998;4.250;2023-08-12T04:25:14;9.45;;;6.25;;
13592;SDS011;6867;50.998;4.250;2023-08-12T04:27:40;12.48;;;6.63;;
13592;SDS011;6867;50.998;4.250;2023-08-12T04:30:09;8.73;;;6.68;;
13592;SDS011;6867;50.998;4.250;2023-08-12T04:32:36;8.82;;;5.45;;
13592;SDS011;6867;50.998;4.250;2023-08-12T04:35:03;5.82;;;5.22;;
13592;SDS011;6867;50.998;4.250;2023-08-12T04:37:30;12.32;;;6.00;;
13592;SDS011;6867;50.998;4.250;2023-08-12T04:39:57;5.63;;;4.25;;
13592;SDS011;6867;50.998;4.250;2023-08-12T04:42:24;4.43;;;3.83;;
13592;SDS011;6867;50.998;4.250;2023-08-12T04:44:50;5.57;;;3.58;;
13592;SDS011;6867;50.998;4.250;2023-08-12T04:47:19;4.30;;;3.25;;
13592;SDS011;6867;50.998;4.250;2023-08-12T04:49:45;3.72;;;3.40;;
13592;SDS011;6867;50.998;4.250;2023-08-12T04:52:12;3.08;;;2.78;;
13592;SDS011;6867;50.998;4.250;2023-08-12T04:54:38;3.58;;;2.65;;
13592;SDS011;6867;50.998;4.250;2023-08-12T04:57:05;3.30;;;2.63;;
13592;SDS011;6867;50.998;4.250;2023-08-12T04:59:32;3.80;;;2.63;;
13592;SDS011;6867;50.998;4.250;2023-08-12T05:01:58;3.58;;;2.58;;
13592;SDS011;6867;50.998;4.250;2023-08-12T05:04:26;2.65;;;2.42;;
13592;SDS011;6867;50.998;4.250;2023-08-12T05:06:53;3.38;;;2.60;;
13592;SDS011;6867;50.998;4.250;2023-08-12T05:09:20;2.90;;;2.70;;
13592;SDS011;6867;50.998;4.250;2023-08-12T05:11:46;3.92;;;2.78;;
13592;SDS011;6867;50.998;4.250;2023-08-12T05:14:13;4.13;;;2.72;;
13592;SDS011;6867;50.998;4.250;2023-08-12T05:16:40;3.70;;;2.92;;
13592;SDS011;6867;50.998;4.250;2023-08-12T05:19:06;3.45;;;2.88;;
13592;SDS011;6867;50.998;4.250;2023-08-12T05:21:34;4.45;;;2.72;;
13592;SDS011;6867;50.998;4.250;2023-08-12T05:24:01;4.85;;;3.03;;
13592;SDS011;6867;50.998;4.250;2023-08-12T05:26:28;4.35;;;3.17;;
13592;SDS011;6867;50.998;4.250;2023-08-12T05:28:54;4.70;;;3.05;;
13592;SDS011;6867;50.998;4.250;2023-08-12T05:31:21;3.40;;;3.10;;
13592;SDS011;6867;50.998;4.250;2023-08-12T05:33:48;6.85;;;3.50;;
13592;SDS011;6867;50.998;4.250;2023-08-12T05:36:14;5.13;;;3.00;;
13592;SDS011;6867;50.998;4.250;2023-08-12T05:38:43;8.77;;;3.80;;
13592;SDS011;6867;50.998;4.250;2023-08-12T05:41:09;5.25;;;2.90;;
13592;SDS011;6867;50.998;4.250;2023-08-12T05:43:36;5.32;;;3.50;;
13592;SDS011;6867;50.998;4.250;2023-08-12T05:46:02;4.75;;;3.55;;
13592;SDS011;6867;50.998;4.250;2023-08-12T05:48:29;6.10;;;3.70;;
13592;SDS011;6867;50.998;4.250;2023-08-12T05:50:56;7.13;;;4.07;;
13592;SDS011;6867;50.998;4.250;2023-08-12T05:53:22;8.05;;;4.53;;
13592;SDS011;6867;50.998;4.250;2023-08-12T05:55:50;5.55;;;4.05;;
13592;SDS011;6867;50.998;4.250;2023-08-12T05:58:17;6.13;;;3.95;;
13592;SDS011;6867;50.998;4.250;2023-08-12T06:00:45;6.20;;;4.00;;
13592;SDS011;6867;50.998;4.250;2023-08-12T06:03:12;5.32;;;3.40;;
13592;SDS011;6867;50.998;4.250;2023-08-12T06:05:39;6.68;;;3.47;;
13592;SDS011;6867;50.998;4.250;2023-08-12T06:08:06;3.08;;;2.78;;
13592;SDS011;6867;50.998;4.250;2023-08-12T06:10:33;3.17;;;2.88;;
13592;SDS011;6867;50.998;4.250;2023-08-12T06:13:01;4.15;;;2.90;;
13592;SDS011;6867;50.998;4.250;2023-08-12T06:15:28;3.28;;;2.65;;
13592;SDS011;6867;50.998;4.250;2023-08-12T06:17:55;3.95;;;3.03;;
13592;SDS011;6867;50.998;4.250;2023-08-12T06:20:22;3.45;;;3.00;;
13592;SDS011;6867;50.998;4.250;2023-08-12T06:22:49;4.38;;;3.13;;
13592;SDS011;6867;50.998;4.250;2023-08-12T06:25:16;4.75;;;3.35;;
13592;SDS011;6867;50.998;4.250;2023-08-12T06:27:43;4.78;;;3.80;;
13592;SDS011;6867;50.998;4.250;2023-08-12T06:30:12;6.35;;;3.72;;
13592;SDS011;6867;50.998;4.250;2023-08-12T06:32:39;4.95;;;3.63;;
13592;SDS011;6867;50.998;4.250;2023-08-12T06:35:06;6.28;;;3.53;;
13592;SDS011;6867;50.998;4.250;2023-08-12T06:37:34;7.40;;;4.13;;
13592;SDS011;6867;50.998;4.250;2023-08-12T06:40:00;5.95;;;3.92;;
13592;SDS011;6867;50.998;4.250;2023-08-12T06:42:27;4.22;;;2.95;;
13592;SDS011;6867;50.998;4.250;2023-08-12T06:44:55;2.78;;;1.90;;
13592;SDS011;6867;50.998;4.250;2023-08-12T06:47:24;2.25;;;1.67;;
13592;SDS011;6867;50.998;4.250;2023-08-12T06:49:52;2.08;;;1.58;;
13592;SDS011;6867;50.998;4.250;2023-08-12T06:52:19;3.47;;;1.63;;
13592;SDS011;6867;50.998;4.250;2023-08-12T06:54:45;1.80;;;1.60;;
13592;SDS011;6867;50.998;4.250;2023-08-12T06:57:12;2.88;;;1.80;;
13592;SDS011;6867;50.998;4.250;2023-08-12T06:59:39;1.98;;;1.58;;
13592;SDS011;6867;50.998;4.250;2023-08-12T07:02:06;2.33;;;1.40;;
13592;SDS011;6867;50.998;4.250;2023-08-12T07:04:34;3.97;;;2.97;;
13592;SDS011;6867;50.998;4.250;2023-08-12T07:07:00;3.17;;;2.22;;
13592;SDS011;6867;50.998;4.250;2023-08-12T07:09:27;5.60;;;2.25;;
13592;SDS011;6867;50.998;4.250;2023-08-12T07:11:54;6.00;;;2.08;;
13592;SDS011;6867;50.998;4.250;2023-08-12T07:14:20;1.90;;;1.77;;
13592;SDS011;6867;50.998;4.250;2023-08-12T07:16:47;2.08;;;1.85;;
13592;SDS011;6867;50.998;4.250;2023-08-12T07:19:14;2.30;;;2.10;;
13592;SDS011;6867;50.998;4.250;2023-08-12T07:21:42;3.67;;;2.30;;
13592;SDS011;6867;50.998;4.250;2023-08-12T07:24:09;4.72;;;2.80;;
13592;SDS011;6867;50.998;4.250;2023-08-12T07:26:35;4.07;;;2.80;;
13592;SDS011;6867;50.998;4.250;2023-08-12T07:29:02;3.05;;;2.60;;
13592;SDS011;6867;50.998;4.250;2023-08-12T07:31:28;2.90;;;2.60;;
13592;SDS011;6867;50.998;4.250;2023-08-12T07:33:55;3.00;;;2.70;;
13592;SDS011;6867;50.998;4.250;2023-08-12T07:36:22;3.25;;;2.70;;
13592;SDS011;6867;50.998;4.250;2023-08-12T07:38:50;2.78;;;2.58;;
13592;SDS011;6867;50.998;4.250;2023-08-12T07:41:16;4.60;;;3.08;;
13592;SDS011;6867;50.998;4.250;2023-08-12T07:43:43;3.63;;;2.80;;
13592;SDS011;6867;50.998;4.250;2023-08-12T07:46:10;5.05;;;3.58;;
13592;SDS011;6867;50.998;4.250;2023-08-12T07:48:37;3.13;;;2.83;;
13592;SDS011;6867;50.998;4.250;2023-08-12T07:51:03;4.35;;;3.60;;
13592;SDS011;6867;50.998;4.250;2023-08-12T07:53:30;5.32;;;3.80;;
13592;SDS011;6867;50.998;4.250;2023-08-12T07:55:58;6.53;;;3.50;;
13592;SDS011;6867;50.998;4.250;2023-08-12T07:58:25;5.80;;;3.28;;
13592;SDS011;6867;50.998;4.250;2023-08-12T08:00:52;4.55;;;3.00;;
13592;SDS011;6867;50.998;4.250;2023-08-12T08:03:19;4.38;;;3.35;;
13592;SDS011;6867;50.998;4.250;2023-08-12T08:05:46;7.57;;;4.57;;
13592;SDS011;6867;50.998;4.250;2023-08-12T08:08:13;5.28;;;3.30;;
13592;SDS011;6867;50.998;4.250;2023-08-12T08:10:39;6.53;;;3.40;;
13592;SDS011;6867;50.998;4.250;2023-08-12T08:13:07;5.65;;;2.97;;
13592;SDS011;6867;50.998;4.250;2023-08-12T08:15:34;4.25;;;3.45;;
13592;SDS011;6867;50.998;4.250;2023-08-12T08:18:01;4.18;;;3.13;;
13592;SDS011;6867;50.998;4.250;2023-08-12T08:20:29;4.28;;;3.88;;
13592;SDS011;6867;50.998;4.250;2023-08-12T08:22:55;6.22;;;3.83;;
13592;SDS011;6867;50.998;4.250;2023-08-12T08:25:22;5.40;;;4.25;;
13592;SDS011;6867;50.998;4.250;2023-08-12T08:27:49;4.57;;;3.70;;
13592;SDS011;6867;50.998;4.250;2023-08-12T08:30:17;6.05;;;4.20;;
13592;SDS011;6867;50.998;4.250;2023-08-12T08:32:44;7.35;;;4.32;;
13592;SDS011;6867;50.998;4.250;2023-08-12T08:35:12;4.15;;;3.75;;
13592;SDS011;6867;50.998;4.250;2023-08-12T08:37:38;5.40;;;3.53;;
13592;SDS011;6867;50.998;4.250;2023-08-12T08:40:07;5.85;;;3.67;;
13592;SDS011;6867;50.998;4.250;2023-08-12T08:42:34;5.47;;;4.15;;
13592;SDS011;6867;50.998;4.250;2023-08-12T08:45:03;4.47;;;3.50;;
13592;SDS011;6867;50.998;4.250;2023-08-12T08:47:39;7.40;;;4.20;;
13592;SDS011;6867;50.998;4.250;2023-08-12T08:50:08;4.97;;;3.65;;
13592;SDS011;6867;50.998;4.250;2023-08-12T08:52:36;4.55;;;4.15;;
13592;SDS011;6867;50.998;4.250;2023-08-12T08:55:03;6.43;;;4.82;;
13592;SDS011;6867;50.998;4.250;2023-08-12T08:57:31;8.68;;;4.10;;
13592;SDS011;6867;50.998;4.250;2023-08-12T08:59:58;7.38;;;3.45;;
13592;SDS011;6867;50.998;4.250;2023-08-12T09:02:24;4.38;;;2.80;;
13592;SDS011;6867;50.998;4.250;2023-08-12T09:04:53;5.05;;;2.45;;
13592;SDS011;6867;50.998;4.250;2023-08-12T09:07:21;5.68;;;2.95;;
13592;SDS011;6867;50.998;4.250;2023-08-12T09:09:48;5.35;;;2.38;;
13592;SDS011;6867;50.998;4.250;2023-08-12T09:12:18;6.18;;;2.63;;
13592;SDS011;6867;50.998;4.250;2023-08-12T09:14:46;6.20;;;2.78;;
13592;SDS011;6867;50.998;4.250;2023-08-12T09:17:12;2.92;;;2.40;;
13592;SDS011;6867;50.998;4.250;2023-08-12T09:19:40;3.13;;;2.17;;
13592;SDS011;6867;50.998;4.250;2023-08-12T09:22:08;5.25;;;2.58;;
13592;SDS011;6867;50.998;4.250;2023-08-12T09:24:35;4.68;;;1.90;;
13592;SDS011;6867;50.998;4.250;2023-08-12T09:27:02;6.78;;;2.22;;
13592;SDS011;6867;50.998;4.250;2023-08-12T09:29:30;4.05;;;1.80;;
13592;SDS011;6867;50.998;4.250;2023-08-12T09:32:05;7.28;;;1.88;;
13592;SDS011;6867;50.998;4.250;2023-08-12T09:34:32;4.22;;;2.10;;
13592;SDS011;6867;50.998;4.250;2023-08-12T09:37:00;4.35;;;1.73;;
13592;SDS011;6867;50.998;4.250;2023-08-12T09:39:29;3.58;;;2.10;;
13592;SDS011;6867;50.998;4.250;2023-08-12T09:41:56;4.32;;;1.80;;
13592;SDS011;6867;50.998;4.250;2023-08-12T09:44:23;4.28;;;1.95;;
13592;SDS011;6867;50.998;4.250;2023-08-12T09:46:53;5.45;;;2.08;;
13592;SDS011;6867;50.998;4.250;2023-08-12T09:49:23;4.63;;;2.45;;
13592;SDS011;6867;50.998;4.250;2023-08-12T09:51:51;6.82;;;2.20;;
13592;SDS011;6867;50.998;4.250;2023-08-12T09:54:17;2.40;;;1.98;;
13592;SDS011;6867;50.998;4.250;2023-08-12T09:56:48;6.82;;;2.50;;
13592;SDS011;6867;50.998;4.250;2023-08-12T09:59:16;5.03;;;2.08;;
13592;SDS011;6867;50.998;4.250;2023-08-12T10:01:46;4.60;;;1.67;;
13592;SDS011;6867;50.998;4.250;2023-08-12T10:04:16;4.30;;;1.90;;
13592;SDS011;6867;50.998;4.250;2023-08-12T10:06:45;9.55;;;2.58;;
13592;SDS011;6867;50.998;4.250;2023-08-12T10:09:14;6.15;;;2.35;;
13592;SDS011;6867;50.998;4.250;2023-08-12T10:11:41;4.85;;;2.03;;
13592;SDS011;6867;50.998;4.250;2023-08-12T10:14:11;4.28;;;1.55;;
13592;SDS011;6867;50.998;4.250;2023-08-12T10:16:39;5.35;;;2.05;;
13592;SDS011;6867;50.998;4.250;2023-08-12T10:19:11;6.20;;;1.67;;
13592;SDS011;6867;50.998;4.250;2023-08-12T10:21:38;6.15;;;1.65;;
13592;SDS011;6867;50.998;4.250;2023-08-12T10:24:06;5.50;;;1.30;;
13592;SDS011;6867;50.998;4.250;2023-08-12T10:26:34;3.28;;;1.50;;
13592;SDS011;6867;50.998;4.250;2023-08-12T10:29:01;8.23;;;1.70;;
13592;SDS011;6867;50.998;4.250;2023-08-12T10:31:30;5.57;;;1.60;;
13592;SDS011;6867;50.998;4.250;2023-08-12T10:33:57;7.55;;;2.50;;
13592;SDS011;6867;50.998;4.250;2023-08-12T10:36:25;5.75;;;1.80;;
13592;SDS011;6867;50.998;4.250;2023-08-12T10:38:52;5.53;;;1.70;;
13592;SDS011;6867;50.998;4.250;2023-08-12T10:41:20;3.30;;;1.70;;
13592;SDS011;6867;50.998;4.250;2023-08-12T10:43:54;5.93;;;1.65;;
13592;SDS011;6867;50.998;4.250;2023-08-12T10:46:22;3.20;;;1.65;;
13592;SDS011;6867;50.998;4.250;2023-08-12T10:48:57;2.75;;;1.48;;
13592;SDS011;6867;50.998;4.250;2023-08-12T10:51:44;3.90;;;1.80;;
13592;SDS011;6867;50.998;4.250;2023-08-12T10:54:20;6.38;;;1.88;;
13592;SDS011;6867;50.998;4.250;2023-08-12T10:57:04;4.35;;;1.52;;
13592;SDS011;6867;50.998;4.250;2023-08-12T10:59:51;2.65;;;1.70;;
13592;SDS011;6867;50.998;4.250;2023-08-12T11:02:20;5.53;;;1.67;;
13592;SDS011;6867;50.998;4.250;2023-08-12T11:04:51;3.97;;;1.55;;
13592;SDS011;6867;50.998;4.250;2023-08-12T11:07:19;4.88;;;1.52;;
13592;SDS011;6867;50.998;4.250;2023-08-12T11:09:50;3.60;;;1.45;;
13592;SDS011;6867;50.998;4.250;2023-08-12T11:12:18;3.50;;;1.65;;
13592;SDS011;6867;50.998;4.250;2023-08-12T11:14:54;7.28;;;1.60;;
13592;SDS011;6867;50.998;4.250;2023-08-12T11:17:27;6.13;;;1.65;;
13592;SDS011;6867;50.998;4.250;2023-08-12T11:19:57;3.88;;;1.70;;
13592;SDS011;6867;50.998;4.250;2023-08-12T11:22:25;9.18;;;1.52;;
13592;SDS011;6867;50.998;4.250;2023-08-12T11:24:51;5.80;;;1.75;;
13592;SDS011;6867;50.998;4.250;2023-08-12T11:27:19;6.50;;;1.63;;
13592;SDS011;6867;50.998;4.250;2023-08-12T11:29:45;5.07;;;1.60;;
13592;SDS011;6867;50.998;4.250;2023-08-12T11:32:12;2.05;;;1.40;;
13592;SDS011;6867;50.998;4.250;2023-08-12T11:34:39;9.02;;;1.92;;
13592;SDS011;6867;50.998;4.250;2023-08-12T11:37:07;3.97;;;1.58;;
13592;SDS011;6867;50.998;4.250;2023-08-12T11:39:34;3.70;;;1.63;;
13592;SDS011;6867;50.998;4.250;2023-08-12T11:42:01;3.53;;;1.80;;
13592;SDS011;6867;50.998;4.250;2023-08-12T11:44:28;3.72;;;1.42;;
13592;SDS011;6867;50.998;4.250;2023-08-12T11:46:55;4.30;;;1.48;;
13592;SDS011;6867;50.998;4.250;2023-08-12T11:49:22;6.72;;;1.80;;
13592;SDS011;6867;50.998;4.250;2023-08-12T11:51:48;4.82;;;1.50;;
13592;SDS011;6867;50.998;4.250;2023-08-12T11:54:17;5.80;;;1.98;;
13592;SDS011;6867;50.998;4.250;2023-08-12T11:56:45;6.18;;;1.60;;
13592;SDS011;6867;50.998;4.250;2023-08-12T11:59:12;2.45;;;1.38;;
13592;SDS011;6867;50.998;4.250;2023-08-12T12:01:39;5.10;;;1.90;;
13592;SDS011;6867;50.998;4.250;2023-08-12T12:04:10;3.47;;;1.40;;
13592;SDS011;6867;50.998;4.250;2023-08-12T12:06:37;2.85;;;1.42;;
13592;SDS011;6867;50.998;4.250;2023-08-12T12:09:05;2.92;;;1.00;;
13592;SDS011;6867;50.998;4.250;2023-08-12T12:11:36;3.03;;;1.60;;
13592;SDS011;6867;50.998;4.250;2023-08-12T12:14:03;2.50;;;1.48;;
13592;SDS011;6867;50.998;4.250;2023-08-12T12:16:37;3.83;;;1.55;;
13592;SDS011;6867;50.998;4.250;2023-08-12T12:19:05;4.47;;;1.52;;
13592;SDS011;6867;50.998;4.250;2023-08-12T12:21:38;4.03;;;1.48;;
13592;SDS011;6867;50.998;4.250;2023-08-12T12:24:06;2.65;;;1.42;;
13592;SDS011;6867;50.998;4.250;2023-08-12T12:26:34;2.67;;;1.30;;
13592;SDS011;6867;50.998;4.250;2023-08-12T12:29:02;3.80;;;1.42;;
13592;SDS011;6867;50.998;4.250;2023-08-12T12:31:29;5.63;;;1.98;;
13592;SDS011;6867;50.998;4.250;2023-08-12T12:33:57;3.28;;;1.17;;
13592;SDS011;6867;50.998;4.250;2023-08-12T12:36:24;4.50;;;1.20;;
13592;SDS011;6867;50.998;4.250;2023-08-12T12:38:50;3.70;;;1.35;;
13592;SDS011;6867;50.998;4.250;2023-08-12T12:41:17;3.70;;;1.40;;
13592;SDS011;6867;50.998;4.250;2023-08-12T12:43:45;3.88;;;1.67;;
13592;SDS011;6867;50.998;4.250;2023-08-12T12:46:12;5.97;;;1.50;;
13592;SDS011;6867;50.998;4.250;2023-08-12T12:48:39;4.03;;;1.20;;
13592;SDS011;6867;50.998;4.250;2023-08-12T12:51:06;3.35;;;1.40;;
13592;SDS011;6867;50.998;4.250;2023-08-12T12:53:32;5.93;;;1.83;;
13592;SDS011;6867;50.998;4.250;2023-08-12T12:55:59;3.15;;;1.40;;
13592;SDS011;6867;50.998;4.250;2023-08-12T12:58:28;3.33;;;1.63;;
13592;SDS011;6867;50.998;4.250;2023-08-12T13:00:57;5.57;;;1.40;;
13592;SDS011;6867;50.998;4.250;2023-08-12T13:03:23;3.17;;;1.38;;
13592;SDS011;6867;50.998;4.250;2023-08-12T13:05:50;3.83;;;1.17;;
13592;SDS011;6867;50.998;4.250;2023-08-12T13:08:17;4.82;;;2.05;;
13592;SDS011;6867;50.998;4.250;2023-08-12T13:10:44;3.25;;;1.15;;
13592;SDS011;6867;50.998;4.250;2023-08-12T13:13:12;2.70;;;1.55;;
13592;SDS011;6867;50.998;4.250;2023-08-12T13:15:40;4.30;;;1.63;;
13592;SDS011;6867;50.998;4.250;2023-08-12T13:18:08;2.80;;;1.40;;
13592;SDS011;6867;50.998;4.250;2023-08-12T13:20:35;5.90;;;1.45;;
13592;SDS011;6867;50.998;4.250;2023-08-12T13:23:03;4.60;;;1.55;;
13592;SDS011;6867;50.998;4.250;2023-08-12T13:25:30;4.25;;;1.52;;
13592;SDS011;6867;50.998;4.250;2023-08-12T13:27:59;4.30;;;1.40;;
13592;SDS011;6867;50.998;4.250;2023-08-12T13:30:26;3.67;;;1.42;;
13592;SDS011;6867;50.998;4.250;2023-08-12T13:32:54;4.80;;;1.65;;
13592;SDS011;6867;50.998;4.250;2023-08-12T13:35:22;5.90;;;1.73;;
13592;SDS011;6867;50.998;4.250;2023-08-12T13:37:49;5.00;;;1.70;;
13592;SDS011;6867;50.998;4.250;2023-08-12T13:40:17;3.97;;;1.38;;
13592;SDS011;6867;50.998;4.250;2023-08-12T13:42:44;2.55;;;1.42;;
13592;SDS011;6867;50.998;4.250;2023-08-12T13:45:12;3.38;;;1.10;;
13592;SDS011;6867;50.998;4.250;2023-08-12T13:47:39;2.88;;;1.48;;
13592;SDS011;6867;50.998;4.250;2023-08-12T13:50:06;5.85;;;1.80;;
13592;SDS011;6867;50.998;4.250;2023-08-12T13:52:35;4.50;;;1.40;;
13592;SDS011;6867;50.998;4.250;2023-08-12T13:55:02;5.13;;;1.65;;
13592;SDS011;6867;50.998;4.250;2023-08-12T13:57:29;6.22;;;2.15;;
13592;SDS011;6867;50.998;4.250;2023-08-12T13:59:56;5.25;;;1.40;;
13592;SDS011;6867;50.998;4.250;2023-08-12T14:02:22;2.78;;;1.23;;
13592;SDS011;6867;50.998;4.250;2023-08-12T14:04:49;8.20;;;1.73;;
13592;SDS011;6867;50.998;4.250;2023-08-12T14:07:16;3.78;;;1.50;;
13592;SDS011;6867;50.998;4.250;2023-08-12T14:09:46;3.88;;;1.85;;
13592;SDS011;6867;50.998;4.250;2023-08-12T14:12:13;8.27;;;2.00;;
13592;SDS011;6867;50.998;4.250;2023-08-12T14:14:40;4.25;;;1.63;;
13592;SDS011;6867;50.998;4.250;2023-08-12T14:17:07;4.10;;;1.67;;
13592;SDS011;6867;50.998;4.250;2023-08-12T14:19:33;4.20;;;1.65;;
13592;SDS011;6867;50.998;4.250;2023-08-12T14:22:00;5.38;;;1.77;;
13592;SDS011;6867;50.998;4.250;2023-08-12T14:24:26;4.43;;;1.55;;
13592;SDS011;6867;50.998;4.250;2023-08-12T14:26:55;5.93;;;1.67;;
13592;SDS011;6867;50.998;4.250;2023-08-12T14:29:21;4.70;;;1.73;;
13592;SDS011;6867;50.998;4.250;2023-08-12T14:31:48;5.70;;;1.73;;
13592;SDS011;6867;50.998;4.250;2023-08-12T14:34:14;6.03;;;1.73;;
13592;SDS011;6867;50.998;4.250;2023-08-12T14:36:41;4.07;;;1.98;;
13592;SDS011;6867;50.998;4.250;2023-08-12T14:39:08;8.35;;;2.20;;
13592;SDS011;6867;50.998;4.250;2023-08-12T14:41:34;5.60;;;2.03;;
13592;SDS011;6867;50.998;4.250;2023-08-12T14:44:03;7.38;;;1.90;;
13592;SDS011;6867;50.998;4.250;2023-08-12T14:46:30;3.95;;;1.42;;
13592;SDS011;6867;50.998;4.250;2023-08-12T14:48:56;6.88;;;1.80;;
13592;SDS011;6867;50.998;4.250;2023-08-12T14:51:23;6.90;;;2.13;;
13592;SDS011;6867;50.998;4.250;2023-08-12T14:53:50;5.07;;;1.85;;
13592;SDS011;6867;50.998;4.250;2023-08-12T14:56:16;4.93;;;1.70;;
13592;SDS011;6867;50.998;4.250;2023-08-12T14:58:44;5.70;;;2.42;;
13592;SDS011;6867;50.998;4.250;2023-08-12T15:01:12;4.05;;;1.90;;
13592;SDS011;6867;50.998;4.250;2023-08-12T15:03:38;4.97;;;1.85;;